createdAt,value
2019-03-23T00:01:01.732Z,25.20
2019-03-23T00:03:29.731Z,24.33
2019-03-23T00:05:57.776Z,25.10
2019-03-23T00:08:25.776Z,25.30
2019-03-23T00:10:53.664Z,23.70
2019-03-23T00:13:21.651Z,25.30
2019-03-23T00:15:49.671Z,20.27
2019-03-23T00:18:17.665Z,21.10
2019-03-23T00:20:45.564Z,20.67
2019-03-23T00:23:13.588Z,20.87
2019-03-23T00:25:41.569Z,21.23
2019-03-23T00:28:09.472Z,19.63
2019-03-23T00:30:37.528Z,21.80
2019-03-23T00:33:05.472Z,21.30
2019-03-23T00:35:33.530Z,20.37
2019-03-23T00:38:01.571Z,20.57
2019-03-23T00:40:29.572Z,21.57
2019-03-23T00:42:57.954Z,22.20
2019-03-23T00:45:25.967Z,23.47
2019-03-23T00:47:54.283Z,21.30
2019-03-23T00:50:22.256Z,21.50
2019-03-23T00:52:50.150Z,21.10
2019-03-23T00:55:18.117Z,20.53
2019-03-23T00:57:46.011Z,21.23
2019-03-23T01:00:14.448Z,22.43
2019-03-23T01:02:42.503Z,22.17
2019-03-23T01:05:10.845Z,22.97
2019-03-23T01:07:38.864Z,20.83
2019-03-23T01:10:07.684Z,22.20
2019-03-23T01:12:36.067Z,21.23
2019-03-23T01:15:08.284Z,20.90
2019-03-23T01:17:36.300Z,24.70
2019-03-23T01:20:05.694Z,25.57
2019-03-23T01:22:36.258Z,24.57
2019-03-23T01:25:05.310Z,23.93
2019-03-23T01:27:33.273Z,22.63
2019-03-23T01:30:01.497Z,22.90
2019-03-23T01:32:29.513Z,24.53
2019-03-23T01:34:57.504Z,25.70
2019-03-23T01:37:25.404Z,25.40
2019-03-23T01:39:53.402Z,25.03
2019-03-23T01:42:21.436Z,26.10
2019-03-23T01:44:49.525Z,26.00
2019-03-23T01:47:17.523Z,25.97
2019-03-23T01:49:45.423Z,26.80
2019-03-23T01:52:13.415Z,28.03
2019-03-23T01:54:41.706Z,29.33
2019-03-23T01:57:09.688Z,27.47
2019-03-23T01:59:37.716Z,28.50
2019-03-23T02:02:05.597Z,28.83
2019-03-23T02:04:33.521Z,28.03
2019-03-23T02:07:01.450Z,27.37
2019-03-23T02:09:29.447Z,28.27
2019-03-23T02:11:57.387Z,28.80
2019-03-23T02:14:25.388Z,30.53
2019-03-23T02:16:53.388Z,30.13
2019-03-23T02:19:21.370Z,30.20
2019-03-23T02:21:49.308Z,30.23
2019-03-23T02:24:17.313Z,30.03
2019-03-23T02:26:45.224Z,30.30
2019-03-23T02:29:13.222Z,30.83
2019-03-23T02:31:41.132Z,30.57
2019-03-23T02:34:09.025Z,29.77
2019-03-23T02:36:37.072Z,30.43
2019-03-23T02:39:06.117Z,32.43
2019-03-23T02:41:34.011Z,30.03
2019-03-23T02:44:01.917Z,32.30
2019-03-23T02:46:29.970Z,31.80
2019-03-23T02:48:57.959Z,31.80
2019-03-23T02:51:25.962Z,30.00
2019-03-23T02:53:53.961Z,32.73
2019-03-23T02:56:21.827Z,29.33
2019-03-23T02:58:50.548Z,31.87
2019-03-23T03:01:18.548Z,31.20
2019-03-23T03:03:46.543Z,31.67
2019-03-23T03:06:14.527Z,33.73
2019-03-23T03:08:42.525Z,32.00
2019-03-23T03:11:10.407Z,32.37
2019-03-23T03:13:38.426Z,34.17
2019-03-23T03:16:06.333Z,31.40
2019-03-23T03:18:34.343Z,31.90
2019-03-23T03:21:02.270Z,30.77
2019-03-23T03:23:30.268Z,31.20
2019-03-23T03:25:58.252Z,29.17
2019-03-23T03:28:26.190Z,29.10
2019-03-23T03:30:54.269Z,30.73
2019-03-23T03:33:22.205Z,28.20
2019-03-23T03:35:50.208Z,32.13
2019-03-23T03:38:18.830Z,29.00
2019-03-23T03:40:46.796Z,31.07
2019-03-23T03:43:14.785Z,31.30
2019-03-23T03:45:45.310Z,29.23
2019-03-23T03:48:13.310Z,28.13
2019-03-23T03:50:41.354Z,28.07
2019-03-23T03:53:09.264Z,27.27
2019-03-23T03:55:37.230Z,27.20
2019-03-23T03:58:05.294Z,27.23
2019-03-23T04:00:33.339Z,25.80
2019-03-23T04:03:01.314Z,24.80
2019-03-23T04:05:29.340Z,26.47
2019-03-23T04:08:10.584Z,27.97
2019-03-23T04:10:27.102Z,25.13
2019-03-23T04:12:55.089Z,27.37
2019-03-23T04:15:23.089Z,26.17
2019-03-23T04:17:50.997Z,25.00
2019-03-23T04:20:19.013Z,23.27
2019-03-23T04:22:46.963Z,23.73
2019-03-23T04:25:14.907Z,24.10
2019-03-23T04:27:42.847Z,23.93
2019-03-23T04:30:10.965Z,24.83
2019-03-23T04:32:39.045Z,23.63
2019-03-23T04:35:07.467Z,22.80
2019-03-23T04:37:35.437Z,23.07
2019-03-23T04:40:04.693Z,22.50
2019-03-23T04:42:32.693Z,21.97
2019-03-23T04:45:00.655Z,24.23
2019-03-23T04:47:28.557Z,23.13
2019-03-23T04:49:56.633Z,22.47
2019-03-23T04:52:24.540Z,21.30
2019-03-23T04:54:52.590Z,22.17
2019-03-23T04:57:20.643Z,20.87
2019-03-23T04:59:48.653Z,20.47
2019-03-23T05:02:16.646Z,21.23
2019-03-23T05:04:44.721Z,22.10
2019-03-23T05:07:12.762Z,23.30
2019-03-23T05:09:40.799Z,22.03
2019-03-23T05:12:08.770Z,20.00
2019-03-23T05:14:36.763Z,21.77
2019-03-23T05:17:04.753Z,21.23
2019-03-23T05:19:32.652Z,21.63
2019-03-23T05:22:00.547Z,22.27
2019-03-23T05:24:28.422Z,20.23
2019-03-23T05:26:56.358Z,20.70
2019-03-23T05:29:24.275Z,21.37
2019-03-23T05:31:52.274Z,20.77
2019-03-23T05:34:20.244Z,19.43
2019-03-23T05:36:48.291Z,21.53
2019-03-23T05:39:16.282Z,20.20
2019-03-23T05:41:44.202Z,21.87
2019-03-23T05:44:12.196Z,20.13
2019-03-23T05:46:40.277Z,19.87
2019-03-23T05:49:08.195Z,18.60
2019-03-23T05:51:36.222Z,19.23
2019-03-23T05:54:04.197Z,18.97
2019-03-23T05:56:32.191Z,22.27
2019-03-23T05:59:00.185Z,18.43
2019-03-23T06:01:28.102Z,19.93
2019-03-23T06:03:55.998Z,19.53
2019-03-23T06:06:23.903Z,19.10
2019-03-23T06:08:55.339Z,20.03
2019-03-23T06:11:23.051Z,19.27
2019-03-23T06:13:51.244Z,20.57
2019-03-23T06:16:20.148Z,19.23
2019-03-23T06:18:48.208Z,22.43
2019-03-23T06:21:16.201Z,20.33
2019-03-23T06:23:44.229Z,19.70
2019-03-23T06:26:12.373Z,21.53
2019-03-23T06:28:40.869Z,23.27
2019-03-23T06:31:08.905Z,19.87
2019-03-23T06:33:36.951Z,19.03
2019-03-23T06:36:05.007Z,20.93
2019-03-23T06:38:32.992Z,20.97
2019-03-23T06:41:01.020Z,20.20
2019-03-23T06:43:29.343Z,20.70
2019-03-23T06:45:57.474Z,21.30
2019-03-23T06:48:25.409Z,18.57
2019-03-23T06:50:53.415Z,18.37
2019-03-23T06:53:22.250Z,18.80
2019-03-23T06:55:50.360Z,19.07
2019-03-23T06:58:18.369Z,20.70
2019-03-23T07:00:46.354Z,20.87
2019-03-23T07:03:14.427Z,19.87
2019-03-23T07:05:42.445Z,20.83
2019-03-23T07:08:10.368Z,19.67
2019-03-23T07:10:39.225Z,19.13
2019-03-23T07:13:07.172Z,18.57
2019-03-23T07:15:35.217Z,20.60
2019-03-23T07:18:22.633Z,19.97
2019-03-23T07:20:51.769Z,19.80
2019-03-23T07:23:19.696Z,20.17
2019-03-23T07:25:47.773Z,17.63
2019-03-23T07:28:15.804Z,18.90
2019-03-23T07:30:44.868Z,18.00
2019-03-23T07:33:12.889Z,18.00
2019-03-23T07:35:40.850Z,18.83
2019-03-23T07:38:08.814Z,17.27
2019-03-23T07:40:36.714Z,18.40
2019-03-23T07:43:05.093Z,19.03
2019-03-23T07:45:33.025Z,19.13
2019-03-23T07:48:01.069Z,18.70
2019-03-23T07:50:29.068Z,17.73
2019-03-23T07:52:57.055Z,19.20
2019-03-23T07:55:25.093Z,17.83
2019-03-23T07:57:53.456Z,17.33
2019-03-23T08:00:21.878Z,18.17
2019-03-23T08:02:49.927Z,18.30
2019-03-23T08:05:17.995Z,17.47
2019-03-23T08:07:45.890Z,18.73
2019-03-23T08:10:30.308Z,17.83
2019-03-23T08:12:58.276Z,18.80
2019-03-23T08:15:26.352Z,18.57
2019-03-23T08:17:54.862Z,18.70
2019-03-23T08:20:22.866Z,18.43
2019-03-23T08:22:50.932Z,18.90
2019-03-23T08:25:19.058Z,18.73
2019-03-23T08:27:49.273Z,16.30
2019-03-23T08:30:17.262Z,17.47
2019-03-23T08:32:45.312Z,18.30
2019-03-23T08:35:13.376Z,19.60
2019-03-23T08:37:41.251Z,16.90
2019-03-23T08:40:09.278Z,18.23
2019-03-23T08:42:37.561Z,17.87
2019-03-23T08:45:05.838Z,17.73
2019-03-23T08:47:33.741Z,17.13
2019-03-23T08:50:01.749Z,18.27
2019-03-23T08:52:29.770Z,17.20
2019-03-23T08:54:57.698Z,17.63
2019-03-23T08:57:25.680Z,17.30
2019-03-23T08:59:53.676Z,19.13
2019-03-23T09:02:22.130Z,19.53
2019-03-23T09:04:50.048Z,18.53
2019-03-23T09:07:18.404Z,18.33
2019-03-23T09:09:46.580Z,17.10
2019-03-23T09:12:14.630Z,18.27
2019-03-23T09:14:42.525Z,19.20
2019-03-23T09:17:10.556Z,18.37
2019-03-23T09:19:38.538Z,18.97
2019-03-23T09:22:06.932Z,17.60
2019-03-23T09:24:34.934Z,19.03
2019-03-23T09:27:13.997Z,16.30
2019-03-23T09:29:43.261Z,17.67
2019-03-23T09:32:11.473Z,19.00
2019-03-23T09:34:39.485Z,18.67
2019-03-23T09:37:07.526Z,16.93
2019-03-23T09:39:35.580Z,18.13
2019-03-23T09:42:03.522Z,16.37
2019-03-23T09:44:31.464Z,18.20
2019-03-23T09:46:59.384Z,16.90
2019-03-23T09:49:27.493Z,17.70
2019-03-23T09:51:55.460Z,17.57
2019-03-23T09:54:23.521Z,17.80
2019-03-23T09:56:51.523Z,17.63
2019-03-23T09:59:19.466Z,17.20
2019-03-23T10:01:47.476Z,19.93
2019-03-23T10:04:15.502Z,16.47
2019-03-23T10:06:43.547Z,19.47
2019-03-23T10:09:11.445Z,16.37
2019-03-23T10:11:40.317Z,16.70
2019-03-23T10:14:09.293Z,17.50
2019-03-23T10:16:38.434Z,17.23
2019-03-23T10:19:06.487Z,17.10
2019-03-23T10:21:34.561Z,16.03
2019-03-23T10:24:02.725Z,17.87
2019-03-23T10:26:32.429Z,18.13
2019-03-23T10:29:00.463Z,19.57
2019-03-23T10:31:28.409Z,18.27
2019-03-23T10:33:56.411Z,18.13
2019-03-23T10:36:24.495Z,17.40
2019-03-23T10:38:52.529Z,22.50
2019-03-23T10:41:39.739Z,17.27
2019-03-23T10:44:07.748Z,16.53
2019-03-23T10:46:36.813Z,16.43
2019-03-23T10:49:04.950Z,17.00
2019-03-23T10:51:32.959Z,17.50
2019-03-23T10:54:04.122Z,18.03
2019-03-23T10:56:32.444Z,16.73
2019-03-23T10:59:14.151Z,17.13
2019-03-23T11:01:42.195Z,17.13
2019-03-23T11:04:10.351Z,17.77
2019-03-23T11:06:38.281Z,16.47
2019-03-23T11:09:07.113Z,15.80
2019-03-23T11:11:35.178Z,17.03
2019-03-23T11:14:03.096Z,16.63
2019-03-23T11:16:31.135Z,16.93
2019-03-23T11:18:59.294Z,19.17
2019-03-23T11:21:27.325Z,18.67
2019-03-23T11:23:55.372Z,17.13
2019-03-23T11:26:23.383Z,18.77
2019-03-23T11:28:51.417Z,17.33
2019-03-23T11:31:19.647Z,17.50
2019-03-23T11:33:47.624Z,17.33
2019-03-23T11:36:15.716Z,17.40
2019-03-23T11:38:43.803Z,16.60
2019-03-23T11:41:11.794Z,17.30
2019-03-23T11:43:39.814Z,19.07
2019-03-23T11:46:07.806Z,18.20
2019-03-23T11:48:35.854Z,19.00
2019-03-23T11:51:03.914Z,31.67
2019-03-23T11:53:32.009Z,17.70
2019-03-23T11:55:59.972Z,18.60
2019-03-23T11:58:28.532Z,18.03
2019-03-23T12:00:56.550Z,19.17
2019-03-23T12:03:26.366Z,18.20
2019-03-23T12:06:00.844Z,17.27
2019-03-23T12:08:30.732Z,18.00
2019-03-23T12:11:03.169Z,19.77
2019-03-23T12:13:28.847Z,17.30
2019-03-23T12:15:56.852Z,18.47
2019-03-23T12:18:24.918Z,19.20
2019-03-23T12:20:52.971Z,18.03
2019-03-23T12:23:20.976Z,19.83
2019-03-23T12:25:49.067Z,20.57
2019-03-23T12:28:17.090Z,18.30
2019-03-23T12:30:45.148Z,17.70
2019-03-23T12:33:13.165Z,17.40
2019-03-23T12:35:41.416Z,20.03
2019-03-23T12:38:09.472Z,16.53
2019-03-23T12:40:40.234Z,17.10
2019-03-23T12:43:08.663Z,18.13
2019-03-23T12:45:38.969Z,16.43
2019-03-23T12:48:10.645Z,18.03
2019-03-23T12:50:39.763Z,17.37
2019-03-23T12:53:07.854Z,19.67
2019-03-23T12:55:35.956Z,17.20
2019-03-23T12:58:08.524Z,18.13
2019-03-23T13:00:38.901Z,18.57
2019-03-23T13:03:07.630Z,17.80
2019-03-23T13:05:35.646Z,17.70
2019-03-23T13:08:03.663Z,18.53
2019-03-23T13:10:31.843Z,18.93
2019-03-23T13:13:01.032Z,17.33
2019-03-23T13:15:29.072Z,17.23
2019-03-23T13:17:57.067Z,17.63
2019-03-23T13:20:25.129Z,16.73
2019-03-23T13:22:53.180Z,16.83
2019-03-23T13:25:29.552Z,17.57
2019-03-23T13:27:58.426Z,18.13
2019-03-23T13:30:26.504Z,19.53
2019-03-23T13:32:54.440Z,19.47
2019-03-23T13:35:22.446Z,17.10
2019-03-23T13:37:50.919Z,17.37
2019-03-23T13:40:18.909Z,17.70
2019-03-23T13:42:46.837Z,19.23
2019-03-23T13:45:15.034Z,17.83
2019-03-23T13:47:46.112Z,18.53
2019-03-23T13:50:25.852Z,19.53
2019-03-23T13:52:53.982Z,19.37
2019-03-23T13:55:26.319Z,21.73
2019-03-23T13:58:08.548Z,19.53
2019-03-23T14:00:37.976Z,19.20
2019-03-23T14:03:08.682Z,21.23
2019-03-23T14:05:36.722Z,21.03
2019-03-23T14:08:04.945Z,19.80
2019-03-23T14:10:34.059Z,20.43
2019-03-23T14:13:02.310Z,19.23
2019-03-23T14:15:30.305Z,18.67
2019-03-23T14:17:58.450Z,19.43
2019-03-23T14:20:28.870Z,20.53
2019-03-23T14:23:02.590Z,20.67
2019-03-23T14:25:27.070Z,21.63
2019-03-23T14:27:58.293Z,20.20
2019-03-23T14:30:26.436Z,19.27
2019-03-23T14:32:56.693Z,21.67
2019-03-23T14:35:27.166Z,18.53
2019-03-23T14:37:56.021Z,20.93
2019-03-23T14:40:28.843Z,18.60
2019-03-23T14:42:56.920Z,18.87
2019-03-23T14:45:24.949Z,18.80
2019-03-23T14:47:53.821Z,18.53
2019-03-23T14:50:21.896Z,18.17
2019-03-23T14:52:49.920Z,18.33
2019-03-23T14:55:17.946Z,17.07
2019-03-23T14:57:45.897Z,16.43
2019-03-23T15:00:19.169Z,16.37
2019-03-23T15:02:47.257Z,16.87
2019-03-23T15:05:15.305Z,15.73
2019-03-23T15:07:43.315Z,14.83
2019-03-23T15:10:11.491Z,14.93
2019-03-23T15:12:39.533Z,13.97
2019-03-23T15:15:08.595Z,13.73
2019-03-23T15:17:36.577Z,12.80
2019-03-23T15:20:05.031Z,13.13
2019-03-23T15:22:32.948Z,11.63
2019-03-23T15:25:00.861Z,13.53
2019-03-23T15:27:29.010Z,11.80
2019-03-23T15:29:58.125Z,16.43
2019-03-23T15:32:26.079Z,19.33
2019-03-23T15:34:54.120Z,9.00
2019-03-23T15:37:22.129Z,8.10
2019-03-23T15:39:50.190Z,6.90
2019-03-23T15:42:24.722Z,8.70
2019-03-23T15:44:49.149Z,7.37
2019-03-23T15:47:17.174Z,8.60
2019-03-23T15:49:45.204Z,7.40
2019-03-23T15:52:13.280Z,7.03
2019-03-23T15:54:41.477Z,6.67
2019-03-23T15:57:09.775Z,7.43
2019-03-23T15:59:37.862Z,6.33
2019-03-23T16:02:05.941Z,7.37
2019-03-23T16:04:35.754Z,6.57
2019-03-23T16:07:06.233Z,6.40
2019-03-23T16:09:34.258Z,5.77
2019-03-23T16:12:04.865Z,4.77
2019-03-23T16:14:32.818Z,5.07
2019-03-23T16:17:00.863Z,4.33
2019-03-23T16:19:30.896Z,5.07
2019-03-23T16:21:59.048Z,3.87
2019-03-23T16:24:27.031Z,4.70
2019-03-23T16:26:55.164Z,4.23
2019-03-23T16:29:23.296Z,3.97
2019-03-23T16:31:52.736Z,3.73
2019-03-23T16:34:20.804Z,3.90
2019-03-23T16:36:50.857Z,3.77
2019-03-23T16:39:18.936Z,3.03
2019-03-23T16:41:46.992Z,3.50
2019-03-23T16:44:15.087Z,3.10
2019-03-23T16:46:43.053Z,1.67
2019-03-23T16:49:11.133Z,3.13
2019-03-23T16:51:39.149Z,2.17
2019-03-23T16:54:07.084Z,2.20
2019-03-23T16:56:36.389Z,2.07
2019-03-23T16:59:06.573Z,1.77
2019-03-23T17:01:34.617Z,1.93
2019-03-23T17:04:02.595Z,2.63
2019-03-23T17:06:30.564Z,2.93
2019-03-23T17:08:58.676Z,2.77
2019-03-23T17:11:26.805Z,1.90
2019-03-23T17:13:54.810Z,2.23
2019-03-23T17:16:22.922Z,2.33
2019-03-23T17:18:51.021Z,2.00
2019-03-23T17:21:18.991Z,2.37
2019-03-23T17:23:47.096Z,2.20
2019-03-23T17:26:15.052Z,2.17
2019-03-23T17:28:43.109Z,2.53
2019-03-23T17:31:10.990Z,2.40
2019-03-23T17:33:39.082Z,3.00
2019-03-23T17:36:07.094Z,2.90
2019-03-23T17:38:35.071Z,2.30
2019-03-23T17:41:05.503Z,2.47
2019-03-23T17:43:33.803Z,3.70
2019-03-23T17:46:01.813Z,2.13
2019-03-23T17:48:29.814Z,2.20
2019-03-23T17:50:57.738Z,3.07
2019-03-23T17:53:25.615Z,4.40
2019-03-23T17:55:53.673Z,3.10
2019-03-23T17:58:21.670Z,3.37
2019-03-23T18:00:49.664Z,2.90
2019-03-23T18:03:17.648Z,2.43
2019-03-23T18:05:46.091Z,2.00
2019-03-23T18:08:14.087Z,1.93
2019-03-23T18:10:43.373Z,2.60
2019-03-23T18:13:16.542Z,3.17
2019-03-23T18:15:41.145Z,1.80
2019-03-23T18:18:09.196Z,1.60
2019-03-23T18:20:37.189Z,2.13
2019-03-23T18:23:29.535Z,2.10
2019-03-23T18:25:59.566Z,2.37
2019-03-23T18:28:27.529Z,2.40
2019-03-23T18:30:55.539Z,2.03
2019-03-23T18:33:23.566Z,1.53
2019-03-23T18:35:51.542Z,2.97
2019-03-23T18:41:15.877Z,4.23
2019-03-23T18:44:03.693Z,3.77
2019-03-23T18:49:15.286Z,3.17
2019-03-23T18:51:43.459Z,9.10
2019-03-23T18:54:11.545Z,6.30
2019-03-23T18:56:39.614Z,6.80
2019-03-23T18:59:07.631Z,3.80
2019-03-23T19:01:35.611Z,5.77
2019-03-23T19:04:03.947Z,8.27
2019-03-23T19:09:07.737Z,2.70
2019-03-23T19:11:36.043Z,3.00
2019-03-23T19:14:04.949Z,2.37
2019-03-23T19:16:33.039Z,2.00
2019-03-23T19:19:00.934Z,2.50
2019-03-23T19:21:28.955Z,2.83
2019-03-23T19:23:58.022Z,2.77
2019-03-23T19:26:28.103Z,2.20
2019-03-23T19:28:56.058Z,2.23
2019-03-23T19:31:24.083Z,1.70
2019-03-23T19:33:52.084Z,2.30
2019-03-23T19:36:20.064Z,2.67
2019-03-23T19:38:48.124Z,3.57
2019-03-23T19:41:16.210Z,3.30
2019-03-23T19:43:48.922Z,2.50
2019-03-23T19:46:13.936Z,2.13
2019-03-23T19:48:41.847Z,1.53
2019-03-23T19:51:09.776Z,2.23
2019-03-23T19:53:37.746Z,2.30
2019-03-23T19:56:05.754Z,2.07
2019-03-23T19:58:33.655Z,1.90
2019-03-23T20:01:01.686Z,2.63
2019-03-23T20:06:05.006Z,1.90
2019-03-23T20:08:33.147Z,2.77
2019-03-23T20:11:01.164Z,2.47
2019-03-23T20:13:29.271Z,2.87
2019-03-23T20:15:57.286Z,2.20
2019-03-23T20:18:25.386Z,1.80
2019-03-23T20:20:54.326Z,2.83
2019-03-23T20:23:23.259Z,2.47
2019-03-23T20:25:51.266Z,2.30
2019-03-23T20:28:19.307Z,2.30
2019-03-23T20:30:47.240Z,1.70
2019-03-23T20:33:19.694Z,2.57
2019-03-23T20:35:45.800Z,2.30
2019-03-23T20:38:13.803Z,2.27
2019-03-23T20:40:42.757Z,2.13
2019-03-23T20:43:10.658Z,2.30
2019-03-23T20:45:38.662Z,3.30
2019-03-23T20:48:07.452Z,2.17
2019-03-23T20:50:35.688Z,2.77
2019-03-23T20:53:03.706Z,2.00
2019-03-23T20:55:31.799Z,2.20
2019-03-23T20:57:59.802Z,2.93
2019-03-23T21:00:27.792Z,1.93
2019-03-23T21:02:55.806Z,2.57
2019-03-23T21:05:33.083Z,2.23
2019-03-23T21:07:53.744Z,3.30
2019-03-23T21:10:21.678Z,3.10
2019-03-23T21:12:49.800Z,2.13
2019-03-23T21:15:17.774Z,2.70
2019-03-23T21:17:51.137Z,2.60
2019-03-23T21:20:15.639Z,2.67
2019-03-23T21:22:43.668Z,2.37
2019-03-23T21:25:11.848Z,2.67
2019-03-23T21:27:39.886Z,2.27
2019-03-23T21:30:10.525Z,2.93
2019-03-23T21:32:38.522Z,2.30
2019-03-23T21:35:06.470Z,2.27
2019-03-23T21:37:34.443Z,2.10
2019-03-23T21:40:02.505Z,2.20
2019-03-23T21:42:30.407Z,2.10
2019-03-23T21:44:58.278Z,2.30
2019-03-23T21:47:26.257Z,2.00
2019-03-23T21:49:54.279Z,2.20
2019-03-23T21:52:22.263Z,2.57
2019-03-23T21:54:50.264Z,2.73
2019-03-23T21:57:18.350Z,2.03
2019-03-23T21:59:46.368Z,1.73
2019-03-23T22:02:14.362Z,2.53
2019-03-23T22:04:42.413Z,3.23
2019-03-23T22:07:10.417Z,2.20
2019-03-23T22:09:38.395Z,1.87
2019-03-23T22:12:06.676Z,3.47
2019-03-23T22:14:41.497Z,3.23
2019-03-23T22:17:05.880Z,4.27
2019-03-23T22:19:35.885Z,4.87
2019-03-23T22:22:03.880Z,3.10
2019-03-23T22:24:31.856Z,3.77
2019-03-23T22:26:59.866Z,2.20
2019-03-23T22:29:27.854Z,4.33
2019-03-23T22:31:55.743Z,4.00
2019-03-23T22:34:23.640Z,4.53
2019-03-23T22:36:51.540Z,4.33
2019-03-23T22:39:19.709Z,4.57
2019-03-23T22:41:47.619Z,3.73
2019-03-23T22:44:15.577Z,2.97
2019-03-23T22:46:43.548Z,5.10
2019-03-23T22:49:11.582Z,4.40
2019-03-23T22:51:41.419Z,3.03
2019-03-23T22:54:09.375Z,2.60
2019-03-23T22:56:37.369Z,3.47
2019-03-23T22:59:05.431Z,3.93
2019-03-23T23:01:33.463Z,4.17
2019-03-23T23:04:01.465Z,3.30
2019-03-23T23:06:29.351Z,3.43
2019-03-23T23:08:57.253Z,4.27
2019-03-23T23:11:25.298Z,5.83
2019-03-23T23:13:53.475Z,3.00
2019-03-23T23:16:21.361Z,3.87
2019-03-23T23:18:52.231Z,4.83
2019-03-23T23:21:20.102Z,2.87
2019-03-23T23:23:48.105Z,2.77
2019-03-23T23:26:16.077Z,3.50
2019-03-23T23:28:44.046Z,2.67
2019-03-23T23:31:11.941Z,2.60
2019-03-23T23:33:39.957Z,3.03
2019-03-23T23:36:07.941Z,3.60
2019-03-23T23:38:35.853Z,1.87
2019-03-23T23:41:03.888Z,2.30
2019-03-23T23:43:31.810Z,2.83
2019-03-23T23:45:59.789Z,2.47
2019-03-23T23:48:27.819Z,3.13
2019-03-23T23:50:55.813Z,2.10
2019-03-23T23:53:23.835Z,2.47
2019-03-23T23:55:51.873Z,2.57
2019-03-23T23:58:19.859Z,2.43
